createdAt,value
2019-02-28T00:00:47.666Z,48.20
2019-02-28T00:01:55.939Z,48.20
2019-02-28T00:03:04.225Z,48.20
2019-02-28T00:04:12.332Z,48.14
2019-02-28T00:05:20.444Z,48.12
2019-02-28T00:06:28.674Z,48.09
2019-02-28T00:07:37.071Z,48.10
2019-02-28T00:08:45.194Z,48.09
2019-02-28T00:09:57.399Z,48.05
2019-02-28T00:11:05.032Z,48.03
2019-02-28T00:12:14.424Z,48.00
2019-02-28T00:13:22.907Z,47.97
2019-02-28T00:14:31.196Z,47.89
2019-02-28T00:15:39.579Z,47.84
2019-02-28T00:16:47.410Z,47.80
2019-02-28T00:17:55.738Z,47.76
2019-02-28T00:19:03.884Z,47.76
2019-02-28T00:20:11.954Z,47.75
2019-02-28T00:21:20.404Z,47.73
2019-02-28T00:22:28.545Z,47.72
2019-02-28T00:23:38.000Z,47.69
2019-02-28T00:24:45.991Z,47.58
2019-02-28T00:25:54.003Z,47.55
2019-02-28T00:27:02.297Z,47.48
2019-02-28T00:28:10.584Z,47.41
2019-02-28T00:29:18.799Z,47.38
2019-02-28T00:30:26.866Z,47.31
2019-02-28T00:31:34.845Z,47.27
2019-02-28T00:32:42.837Z,47.24
2019-02-28T00:33:50.808Z,47.23
2019-02-28T00:34:58.924Z,47.25
2019-02-28T00:36:07.066Z,47.25
2019-02-28T00:37:15.162Z,47.26
2019-02-28T00:38:23.362Z,47.26
2019-02-28T00:39:34.740Z,47.24
2019-02-28T00:40:40.966Z,47.29
2019-02-28T00:41:48.987Z,47.32
2019-02-28T00:42:57.190Z,47.36
2019-02-28T00:44:05.601Z,47.41
2019-02-28T00:45:15.425Z,47.43
2019-02-28T00:46:23.623Z,47.44
2019-02-28T00:47:31.825Z,47.44
2019-02-28T00:48:40.128Z,47.46
2019-02-28T00:49:48.012Z,47.46
2019-02-28T00:50:58.466Z,47.48
2019-02-28T00:52:05.758Z,47.48
2019-02-28T00:53:13.680Z,47.53
2019-02-28T00:54:25.742Z,47.51
2019-02-28T00:55:33.723Z,47.51
2019-02-28T00:56:41.825Z,47.50
2019-02-28T00:57:50.120Z,47.50
2019-02-28T00:59:00.506Z,47.47
2019-02-28T01:00:14.693Z,47.47
2019-02-28T01:01:22.827Z,47.44
2019-02-28T01:02:31.009Z,47.43
2019-02-28T01:03:39.370Z,47.46
2019-02-28T01:04:47.270Z,47.46
2019-02-28T01:05:55.525Z,47.44
2019-02-28T01:07:03.505Z,47.43
2019-02-28T01:08:11.578Z,47.38
2019-02-28T01:09:19.663Z,47.34
2019-02-28T01:10:27.848Z,47.33
2019-02-28T01:11:35.994Z,47.30
2019-02-28T01:12:44.010Z,47.27
2019-02-28T01:13:52.184Z,47.22
2019-02-28T01:15:00.316Z,47.19
2019-02-28T01:16:08.374Z,47.16
2019-02-28T01:17:16.872Z,47.12
2019-02-28T01:18:25.202Z,47.13
2019-02-28T01:19:33.360Z,47.09
2019-02-28T01:20:41.969Z,47.12
2019-02-28T01:21:49.973Z,47.05
2019-02-28T01:22:58.528Z,47.05
2019-02-28T01:24:07.384Z,47.06
2019-02-28T01:25:18.143Z,47.06
2019-02-28T01:26:26.251Z,47.08
2019-02-28T01:27:34.378Z,47.09
2019-02-28T01:28:43.010Z,47.09
2019-02-28T01:29:51.174Z,47.08
2019-02-28T01:30:59.287Z,47.09
2019-02-28T01:32:07.198Z,47.12
2019-02-28T01:33:15.071Z,47.16
2019-02-28T01:34:23.158Z,47.18
2019-02-28T01:35:31.072Z,47.22
2019-02-28T01:36:39.371Z,47.21
2019-02-28T01:37:47.282Z,47.21
2019-02-28T01:38:57.823Z,47.22
2019-02-28T01:40:08.054Z,47.23
2019-02-28T01:41:15.982Z,47.25
2019-02-28T01:42:23.967Z,47.30
2019-02-28T01:43:32.226Z,47.32
2019-02-28T01:44:40.670Z,47.34
2019-02-28T01:45:48.916Z,47.34
2019-02-28T01:46:56.964Z,47.30
2019-02-28T01:48:05.139Z,47.28
2019-02-28T01:49:13.002Z,47.24
2019-02-28T01:50:21.142Z,47.22
2019-02-28T01:51:35.700Z,47.18
2019-02-28T01:52:44.415Z,47.16
2019-02-28T01:53:50.470Z,47.17
2019-02-28T01:54:59.181Z,47.19
2019-02-28T01:56:07.267Z,47.21
2019-02-28T01:57:15.195Z,47.20
2019-02-28T01:58:23.545Z,47.20
2019-02-28T01:59:31.807Z,47.19
2019-02-28T02:00:40.179Z,47.20
2019-02-28T02:01:48.434Z,47.16
2019-02-28T02:02:56.864Z,47.11
2019-02-28T02:04:04.949Z,47.04
2019-02-28T02:05:13.269Z,47.01
2019-02-28T02:06:22.591Z,46.96
2019-02-28T02:07:33.353Z,46.92
2019-02-28T02:08:41.671Z,46.89
2019-02-28T02:09:50.437Z,46.91
2019-02-28T02:10:58.775Z,46.93
2019-02-28T02:12:06.897Z,46.93
2019-02-28T02:13:15.245Z,46.91
2019-02-28T02:14:23.345Z,46.95
2019-02-28T02:15:31.944Z,46.97
2019-02-28T02:16:40.239Z,46.97
2019-02-28T02:17:48.753Z,46.98
2019-02-28T02:18:56.961Z,47.00
2019-02-28T02:20:11.258Z,46.99
2019-02-28T02:21:19.796Z,47.03
2019-02-28T02:22:27.881Z,47.04
2019-02-28T02:23:35.782Z,47.07
2019-02-28T02:24:44.188Z,47.07
2019-02-28T02:25:52.295Z,47.05
2019-02-28T02:27:00.519Z,47.06
2019-02-28T02:28:08.600Z,47.03
2019-02-28T02:29:16.693Z,47.02
2019-02-28T02:30:25.868Z,46.97
2019-02-28T02:31:34.114Z,46.95
2019-02-28T02:32:42.367Z,46.95
2019-02-28T02:33:52.425Z,46.93
2019-02-28T02:35:05.806Z,46.94
2019-02-28T02:36:10.075Z,46.94
2019-02-28T02:37:18.029Z,46.90
2019-02-28T02:38:26.044Z,46.91
2019-02-28T02:39:34.011Z,46.91
2019-02-28T02:40:42.009Z,46.91
2019-02-28T02:41:50.474Z,46.90
2019-02-28T02:42:58.476Z,46.86
2019-02-28T02:44:06.648Z,46.86
2019-02-28T02:45:16.235Z,46.89
2019-02-28T02:46:24.290Z,46.87
2019-02-28T02:47:32.648Z,46.87
2019-02-28T02:48:42.289Z,46.85
2019-02-28T02:49:56.120Z,46.89
2019-02-28T02:51:00.481Z,46.89
2019-02-28T02:52:08.438Z,46.88
2019-02-28T02:53:16.549Z,46.91
2019-02-28T02:54:24.552Z,46.94
2019-02-28T02:55:32.855Z,46.97
2019-02-28T02:56:42.063Z,46.96
2019-02-28T02:57:51.900Z,46.92
2019-02-28T02:59:02.120Z,46.93
2019-02-28T03:00:16.250Z,46.97
2019-02-28T03:01:24.690Z,47.02
2019-02-28T03:02:33.138Z,47.03
2019-02-28T03:03:44.235Z,47.06
2019-02-28T03:04:58.020Z,47.10
2019-02-28T03:06:01.918Z,47.08
2019-02-28T03:07:10.401Z,47.08
2019-02-28T03:08:18.509Z,47.13
2019-02-28T03:09:26.602Z,47.16
2019-02-28T03:10:34.794Z,47.17
2019-02-28T03:11:42.989Z,47.18
2019-02-28T03:12:51.423Z,47.21
2019-02-28T03:13:59.700Z,47.24
2019-02-28T03:15:13.542Z,47.21
2019-02-28T03:16:21.810Z,47.20
2019-02-28T03:17:30.322Z,47.21
2019-02-28T03:18:38.699Z,47.19
2019-02-28T03:19:46.960Z,47.14
2019-02-28T03:20:55.600Z,47.09
2019-02-28T03:22:03.685Z,47.05
2019-02-28T03:23:11.868Z,47.01
2019-02-28T03:24:19.999Z,46.95
2019-02-28T03:25:29.010Z,46.92
2019-02-28T03:26:41.363Z,46.87
2019-02-28T03:27:46.769Z,46.86
2019-02-28T03:28:55.255Z,46.86
2019-02-28T03:30:03.323Z,46.83
2019-02-28T03:31:14.710Z,46.80
2019-02-28T03:32:21.143Z,46.79
2019-02-28T03:33:29.324Z,46.79
2019-02-28T03:34:37.438Z,46.76
2019-02-28T03:35:45.378Z,46.76
2019-02-28T03:36:57.001Z,46.78
2019-02-28T03:38:10.639Z,46.80
2019-02-28T03:39:13.035Z,46.84
2019-02-28T03:40:21.302Z,46.87
2019-02-28T03:41:29.492Z,46.87
2019-02-28T03:42:37.515Z,46.88
2019-02-28T03:43:45.779Z,46.88
2019-02-28T03:44:57.128Z,46.91
2019-02-28T03:46:06.394Z,46.95
2019-02-28T03:47:13.381Z,47.00
2019-02-28T03:48:21.585Z,47.02
2019-02-28T03:49:29.734Z,47.06
2019-02-28T03:50:37.698Z,47.08
2019-02-28T03:51:45.954Z,47.09
2019-02-28T03:52:54.463Z,47.12
2019-02-28T03:54:02.588Z,47.15
2019-02-28T03:55:13.802Z,47.16
2019-02-28T03:56:22.105Z,47.15
2019-02-28T03:57:30.132Z,47.15
2019-02-28T03:58:42.873Z,47.23
2019-02-28T03:59:55.366Z,47.23
2019-02-28T04:00:58.059Z,47.25
2019-02-28T04:02:06.326Z,47.23
2019-02-28T04:03:14.377Z,47.23
2019-02-28T04:04:22.463Z,47.21
2019-02-28T04:05:30.650Z,47.20
2019-02-28T04:06:40.713Z,47.23
2019-02-28T04:07:52.920Z,47.24
2019-02-28T04:09:07.332Z,47.21
2019-02-28T04:10:11.450Z,47.22
2019-02-28T04:11:19.485Z,47.23
2019-02-28T04:12:27.662Z,47.29
2019-02-28T04:13:35.778Z,47.30
2019-02-28T04:14:43.977Z,47.36
2019-02-28T04:16:07.787Z,47.38
2019-02-28T04:17:02.317Z,47.41
2019-02-28T04:18:10.503Z,47.43
2019-02-28T04:19:22.668Z,47.50
2019-02-28T04:20:35.909Z,47.55
2019-02-28T04:21:38.123Z,47.52
2019-02-28T04:22:46.165Z,47.50
2019-02-28T04:23:54.492Z,47.49
2019-02-28T04:25:02.666Z,47.45
2019-02-28T04:26:10.685Z,47.46
2019-02-28T04:27:18.740Z,47.46
2019-02-28T04:28:26.923Z,47.46
2019-02-28T04:29:35.175Z,47.47
2019-02-28T04:30:44.094Z,47.48
2019-02-28T04:31:52.575Z,47.51
2019-02-28T04:33:02.359Z,47.54
2019-02-28T04:34:13.478Z,47.52
2019-02-28T04:35:24.301Z,47.53
2019-02-28T04:36:35.499Z,47.56
2019-02-28T04:37:44.910Z,47.57
2019-02-28T04:38:51.696Z,47.56
2019-02-28T04:40:00.238Z,47.62
2019-02-28T04:41:08.337Z,47.62
2019-02-28T04:42:16.425Z,47.63
2019-02-28T04:43:24.730Z,47.64
2019-02-28T04:44:32.791Z,47.63
2019-02-28T04:45:41.268Z,47.71
2019-02-28T04:46:49.768Z,47.77
2019-02-28T04:47:58.236Z,47.79
2019-02-28T04:49:06.407Z,47.83
2019-02-28T04:50:14.983Z,47.85
2019-02-28T04:51:23.213Z,47.84
2019-02-28T04:52:31.415Z,47.87
2019-02-28T04:53:40.043Z,47.88
2019-02-28T04:54:48.369Z,47.92
2019-02-28T04:55:56.541Z,47.97
2019-02-28T04:57:04.747Z,48.03
2019-02-28T04:58:12.819Z,48.10
2019-02-28T04:59:20.945Z,48.16
2019-02-28T05:00:28.990Z,48.20
2019-02-28T05:01:37.048Z,48.25
2019-02-28T05:02:45.242Z,48.33
2019-02-28T05:03:53.425Z,48.38
2019-02-28T05:05:01.539Z,48.40
2019-02-28T05:06:09.637Z,48.41
2019-02-28T05:07:17.565Z,48.45
2019-02-28T05:08:25.709Z,48.50
2019-02-28T05:09:33.657Z,48.56
2019-02-28T05:10:41.637Z,48.64
2019-02-28T05:11:50.105Z,48.69
2019-02-28T05:12:58.751Z,48.79
2019-02-28T05:14:07.186Z,48.88
2019-02-28T05:15:16.416Z,48.95
2019-02-28T05:16:24.456Z,49.00
2019-02-28T05:17:32.650Z,49.10
2019-02-28T05:18:40.748Z,49.15
2019-02-28T05:19:48.823Z,49.21
2019-02-28T05:20:57.332Z,49.27
2019-02-28T05:22:05.329Z,49.33
2019-02-28T05:23:14.291Z,49.35
2019-02-28T05:24:22.399Z,49.35
2019-02-28T05:25:30.617Z,49.38
2019-02-28T05:26:38.603Z,49.37
2019-02-28T05:27:46.775Z,49.38
2019-02-28T05:28:55.202Z,49.40
2019-02-28T05:30:03.777Z,49.38
2019-02-28T05:31:11.902Z,49.42
2019-02-28T05:32:20.000Z,49.46
2019-02-28T05:33:28.358Z,49.45
2019-02-28T05:34:36.369Z,49.42
2019-02-28T05:35:44.557Z,49.37
2019-02-28T05:36:52.669Z,49.35
2019-02-28T05:38:01.383Z,49.35
2019-02-28T05:39:09.503Z,49.33
2019-02-28T05:40:18.271Z,49.33
2019-02-28T05:41:26.788Z,49.33
2019-02-28T05:42:34.983Z,49.26
2019-02-28T05:43:43.197Z,49.26
2019-02-28T05:44:51.412Z,49.25
2019-02-28T05:46:00.372Z,49.26
2019-02-28T05:47:08.635Z,49.21
2019-02-28T05:48:16.870Z,49.19
2019-02-28T05:49:25.589Z,49.19
2019-02-28T05:50:33.782Z,49.21
2019-02-28T05:51:42.226Z,49.19
2019-02-28T05:52:50.362Z,49.23
2019-02-28T05:53:58.650Z,49.23
2019-02-28T05:55:09.433Z,49.30
2019-02-28T05:56:17.750Z,49.35
2019-02-28T05:57:26.620Z,49.32
2019-02-28T05:58:35.146Z,49.31
2019-02-28T05:59:43.614Z,49.30
2019-02-28T06:00:52.006Z,49.28
2019-02-28T06:02:00.327Z,49.29
2019-02-28T06:03:08.743Z,49.30
2019-02-28T06:04:16.768Z,49.29
2019-02-28T06:05:25.260Z,49.28
2019-02-28T06:06:33.184Z,49.27
2019-02-28T06:07:41.463Z,49.30
2019-02-28T06:08:49.427Z,49.33
2019-02-28T06:09:57.898Z,49.35
2019-02-28T06:11:06.152Z,49.38
2019-02-28T06:12:14.437Z,49.40
2019-02-28T06:13:22.741Z,49.41
2019-02-28T06:14:31.529Z,49.43
2019-02-28T06:15:39.731Z,49.44
2019-02-28T06:16:48.447Z,49.42
2019-02-28T06:17:56.863Z,49.44
2019-02-28T06:19:08.360Z,49.43
2019-02-28T06:20:16.898Z,49.44
2019-02-28T06:21:26.586Z,49.44
2019-02-28T06:22:36.315Z,49.40
2019-02-28T06:23:45.586Z,49.38
2019-02-28T06:24:53.878Z,49.35
2019-02-28T06:26:02.231Z,49.34
2019-02-28T06:27:10.646Z,49.33
2019-02-28T06:28:19.040Z,49.33
2019-02-28T06:29:27.152Z,49.26
2019-02-28T06:30:35.443Z,49.18
2019-02-28T06:31:45.478Z,49.08
2019-02-28T06:32:57.866Z,49.00
2019-02-28T06:34:05.681Z,48.91
2019-02-28T06:35:17.651Z,48.85
2019-02-28T06:36:25.687Z,48.77
2019-02-28T06:37:35.389Z,48.72
2019-02-28T06:38:43.364Z,48.69
2019-02-28T06:39:51.908Z,48.66
2019-02-28T06:41:00.242Z,48.65
2019-02-28T06:42:11.848Z,48.57
2019-02-28T06:43:19.489Z,48.52
2019-02-28T06:44:27.867Z,48.48
2019-02-28T06:45:37.625Z,48.42
2019-02-28T06:46:50.031Z,48.37
2019-02-28T06:48:00.792Z,48.30
2019-02-28T06:49:10.679Z,48.23
2019-02-28T06:50:20.733Z,48.18
2019-02-28T06:51:32.106Z,48.08
2019-02-28T06:52:46.429Z,47.98
2019-02-28T06:53:59.536Z,47.96
2019-02-28T06:55:19.281Z,47.89
2019-02-28T06:56:30.827Z,47.83
2019-02-28T06:57:39.178Z,47.71
2019-02-28T06:58:47.554Z,47.64
2019-02-28T06:59:55.816Z,47.59
2019-02-28T07:01:04.298Z,47.52
2019-02-28T07:02:12.538Z,47.41
2019-02-28T07:03:20.800Z,47.35
2019-02-28T07:04:29.112Z,47.25
2019-02-28T07:05:37.349Z,47.21
2019-02-28T07:06:45.338Z,47.18
2019-02-28T07:07:54.761Z,47.12
2019-02-28T07:09:03.154Z,47.05
2019-02-28T07:10:17.371Z,46.99
2019-02-28T07:11:25.414Z,46.88
2019-02-28T07:12:33.787Z,46.77
2019-02-28T07:13:42.211Z,46.68
2019-02-28T07:14:50.612Z,46.57
2019-02-28T07:15:59.835Z,46.52
2019-02-28T07:17:10.761Z,46.48
2019-02-28T07:18:19.849Z,46.43
2019-02-28T07:19:28.179Z,46.36
2019-02-28T07:20:36.701Z,46.33
2019-02-28T07:21:44.954Z,46.23
2019-02-28T07:22:55.598Z,46.15
2019-02-28T07:24:03.787Z,46.09
2019-02-28T07:25:13.931Z,45.89
2019-02-28T07:26:21.992Z,45.80
2019-02-28T07:27:30.051Z,45.72
2019-02-28T07:28:38.514Z,45.56
2019-02-28T07:29:46.872Z,45.54
2019-02-28T07:30:55.266Z,45.36
2019-02-28T07:32:03.822Z,45.33
2019-02-28T07:33:11.873Z,45.13
2019-02-28T07:34:23.798Z,44.91
2019-02-28T07:35:34.208Z,44.87
2019-02-28T07:36:41.470Z,44.78
2019-02-28T07:37:53.202Z,44.67
2019-02-28T07:39:01.290Z,44.50
2019-02-28T07:40:16.281Z,44.42
2019-02-28T07:41:26.461Z,44.29
2019-02-28T07:42:33.702Z,44.12
2019-02-28T07:43:45.909Z,44.00
2019-02-28T07:44:53.697Z,43.92
2019-02-28T07:46:04.499Z,43.80
2019-02-28T07:47:16.998Z,43.64
2019-02-28T07:48:26.399Z,43.55
2019-02-28T07:49:35.566Z,43.29
2019-02-28T07:50:43.584Z,43.18
2019-02-28T07:51:51.262Z,43.08
2019-02-28T07:52:59.781Z,42.97
2019-02-28T07:54:08.440Z,42.75
2019-02-28T07:55:21.557Z,42.68
2019-02-28T07:56:29.796Z,42.62
2019-02-28T07:57:38.213Z,42.61
2019-02-28T07:58:46.346Z,42.49
2019-02-28T07:59:54.715Z,42.21
2019-02-28T08:01:02.951Z,41.93
2019-02-28T08:02:11.322Z,41.85
2019-02-28T08:03:19.833Z,41.81
2019-02-28T08:04:27.910Z,41.72
2019-02-28T08:05:35.924Z,41.71
2019-02-28T08:06:43.860Z,41.70
2019-02-28T08:07:52.714Z,41.65
2019-02-28T08:09:01.791Z,41.53
2019-02-28T08:10:29.904Z,41.25
2019-02-28T08:11:37.918Z,41.25
2019-02-28T08:12:46.013Z,41.05
2019-02-28T08:13:55.545Z,40.94
2019-02-28T08:15:04.665Z,40.86
2019-02-28T08:16:12.789Z,40.63
2019-02-28T08:17:20.799Z,40.41
2019-02-28T08:18:28.953Z,40.42
2019-02-28T08:19:36.898Z,40.32
2019-02-28T08:20:45.006Z,40.24
2019-02-28T08:21:53.280Z,40.12
2019-02-28T08:23:01.369Z,40.16
2019-02-28T08:24:09.799Z,40.16
2019-02-28T08:25:18.462Z,40.07
2019-02-28T08:26:26.462Z,40.04
2019-02-28T08:27:34.680Z,40.13
2019-02-28T08:28:43.163Z,40.02
2019-02-28T08:29:51.251Z,39.86
2019-02-28T08:30:59.674Z,39.90
2019-02-28T08:32:08.219Z,39.89
2019-02-28T08:33:17.173Z,39.63
2019-02-28T08:34:25.390Z,39.41
2019-02-28T08:35:34.975Z,39.35
2019-02-28T08:36:43.823Z,39.19
2019-02-28T08:37:57.153Z,39.02
2019-02-28T08:39:02.798Z,39.11
2019-02-28T08:40:16.329Z,39.14
2019-02-28T08:41:25.695Z,39.07
2019-02-28T08:42:38.648Z,38.90
2019-02-28T08:43:44.579Z,38.73
2019-02-28T08:44:58.099Z,38.67
2019-02-28T08:46:09.561Z,38.77
2019-02-28T08:47:13.171Z,38.79
2019-02-28T08:48:21.253Z,38.71
2019-02-28T08:49:29.481Z,38.66
2019-02-28T08:50:37.728Z,38.45
2019-02-28T08:51:46.020Z,38.10
2019-02-28T08:53:03.796Z,37.89
2019-02-28T08:54:11.750Z,37.75
2019-02-28T08:55:28.144Z,37.61
2019-02-28T08:56:29.710Z,37.38
2019-02-28T08:57:37.918Z,37.48
2019-02-28T08:58:45.882Z,37.26
2019-02-28T08:59:56.114Z,37.14
2019-02-28T09:01:06.533Z,36.99
2019-02-28T09:02:18.320Z,36.90
2019-02-28T09:03:27.423Z,36.72
2019-02-28T09:04:41.025Z,36.52
2019-02-28T09:05:44.677Z,36.60
2019-02-28T09:06:53.090Z,36.45
2019-02-28T09:08:01.584Z,36.39
2019-02-28T09:09:12.149Z,36.03
2019-02-28T09:10:23.215Z,35.88
2019-02-28T09:11:31.311Z,35.87
2019-02-28T09:12:39.581Z,35.46
2019-02-28T09:13:47.668Z,35.44
2019-02-28T09:14:56.342Z,35.60
2019-02-28T09:16:05.548Z,35.63
2019-02-28T09:17:15.528Z,35.62
2019-02-28T09:18:23.698Z,35.54
2019-02-28T09:19:32.638Z,35.56
2019-02-28T09:20:45.107Z,35.31
2019-02-28T09:21:52.885Z,35.01
2019-02-28T09:23:02.186Z,34.97
2019-02-28T09:24:12.696Z,34.17
2019-02-28T09:25:26.948Z,34.02
2019-02-28T09:26:35.309Z,33.90
2019-02-28T09:27:43.783Z,33.64
2019-02-28T09:28:51.838Z,33.80
2019-02-28T09:29:59.989Z,33.94
2019-02-28T09:31:08.283Z,33.90
2019-02-28T09:32:17.620Z,33.75
2019-02-28T09:33:25.905Z,33.82
2019-02-28T09:34:34.190Z,33.87
2019-02-28T09:35:45.328Z,33.95
2019-02-28T09:36:55.220Z,34.08
2019-02-28T09:38:06.425Z,34.20
2019-02-28T09:39:11.961Z,34.12
2019-02-28T09:40:20.303Z,34.10
2019-02-28T09:41:28.399Z,34.16
2019-02-28T09:42:36.650Z,34.08
2019-02-28T09:43:44.839Z,33.92
2019-02-28T09:44:53.200Z,34.00
2019-02-28T09:46:01.410Z,33.98
2019-02-28T09:47:11.716Z,33.86
2019-02-28T09:48:19.682Z,33.85
2019-02-28T09:49:27.903Z,33.51
2019-02-28T09:50:35.872Z,33.54
2019-02-28T09:51:44.170Z,33.55
2019-02-28T09:52:52.494Z,33.55
2019-02-28T09:54:00.579Z,33.48
2019-02-28T09:55:10.820Z,33.61
2019-02-28T09:56:19.474Z,33.67
2019-02-28T09:57:27.698Z,33.67
2019-02-28T09:58:35.779Z,33.61
2019-02-28T09:59:43.897Z,33.61
2019-02-28T10:00:51.885Z,33.52
2019-02-28T10:02:01.823Z,33.28
2019-02-28T10:03:10.071Z,33.19
2019-02-28T10:04:18.452Z,33.36
2019-02-28T10:05:26.942Z,33.50
2019-02-28T10:06:35.297Z,33.51
2019-02-28T10:07:43.306Z,33.48
2019-02-28T10:08:51.282Z,33.33
2019-02-28T10:09:59.352Z,33.29
2019-02-28T10:11:07.448Z,33.42
2019-02-28T10:12:15.623Z,33.36
2019-02-28T10:13:23.725Z,33.32
2019-02-28T10:14:31.944Z,33.38
2019-02-28T10:15:41.740Z,33.46
2019-02-28T10:16:52.650Z,33.31
2019-02-28T10:18:00.732Z,33.31
2019-02-28T10:19:10.247Z,33.29
2019-02-28T10:20:40.193Z,33.31
2019-02-28T10:21:52.148Z,33.27
2019-02-28T10:22:58.637Z,33.45
2019-02-28T10:24:06.914Z,33.57
2019-02-28T10:25:16.599Z,33.66
2019-02-28T10:26:25.141Z,33.68
2019-02-28T10:27:33.269Z,33.62
2019-02-28T10:28:41.838Z,33.58
2019-02-28T10:29:50.216Z,33.68
2019-02-28T10:30:58.579Z,33.78
2019-02-28T10:32:09.000Z,33.87
2019-02-28T10:33:17.349Z,33.90
2019-02-28T10:34:27.250Z,33.99
2019-02-28T10:35:36.740Z,34.00
2019-02-28T10:36:47.963Z,34.04
2019-02-28T10:37:58.550Z,34.06
2019-02-28T10:39:08.865Z,34.05
2019-02-28T10:40:25.853Z,33.86
2019-02-28T10:41:33.811Z,33.89
2019-02-28T10:42:41.838Z,33.99
2019-02-28T10:43:52.243Z,34.10
2019-02-28T10:45:00.009Z,34.17
2019-02-28T10:46:08.242Z,34.18
2019-02-28T10:47:16.623Z,34.17
2019-02-28T10:48:24.977Z,34.27
2019-02-28T10:49:33.043Z,34.30
2019-02-28T10:50:41.759Z,34.30
2019-02-28T10:51:50.442Z,34.38
2019-02-28T10:53:04.213Z,34.46
2019-02-28T10:54:11.234Z,34.56
2019-02-28T10:55:22.204Z,34.59
2019-02-28T10:56:32.049Z,34.50
2019-02-28T10:57:40.622Z,34.35
2019-02-28T10:58:50.076Z,34.20
2019-02-28T10:59:59.434Z,34.11
2019-02-28T11:01:10.598Z,34.07
2019-02-28T11:02:20.678Z,33.93
2019-02-28T11:03:32.428Z,33.75
2019-02-28T11:04:42.887Z,33.46
2019-02-28T11:05:53.344Z,33.51
2019-02-28T11:07:02.219Z,33.41
2019-02-28T11:08:13.677Z,33.39
2019-02-28T11:09:25.252Z,33.28
2019-02-28T11:10:41.297Z,33.19
2019-02-28T11:11:49.408Z,33.23
2019-02-28T11:12:57.925Z,33.03
2019-02-28T11:14:06.381Z,32.81
2019-02-28T11:15:15.582Z,32.56
2019-02-28T11:16:24.549Z,32.50
2019-02-28T11:17:34.157Z,32.14
2019-02-28T11:18:42.799Z,32.17
2019-02-28T11:19:51.987Z,32.08
2019-02-28T11:21:00.950Z,32.15
2019-02-28T11:22:09.305Z,31.91
2019-02-28T11:23:18.002Z,31.36
2019-02-28T11:24:28.057Z,31.20
2019-02-28T11:25:36.491Z,31.34
2019-02-28T11:26:45.597Z,31.39
2019-02-28T11:27:54.678Z,31.22
2019-02-28T11:29:03.904Z,31.07
2019-02-28T11:30:28.037Z,30.98
2019-02-28T11:31:36.264Z,30.97
2019-02-28T11:32:44.716Z,30.90
2019-02-28T11:33:53.058Z,30.97
2019-02-28T11:35:01.246Z,30.75
2019-02-28T11:36:09.349Z,30.68
2019-02-28T11:37:17.984Z,30.75
2019-02-28T11:38:25.944Z,30.60
2019-02-28T11:39:33.961Z,30.66
2019-02-28T11:40:43.907Z,30.39
2019-02-28T11:41:52.650Z,30.28
2019-02-28T11:43:04.114Z,30.06
2019-02-28T11:44:12.938Z,30.10
2019-02-28T11:45:30.906Z,30.04
2019-02-28T11:46:38.993Z,29.97
2019-02-28T11:47:49.087Z,29.87
2019-02-28T11:48:57.046Z,29.52
2019-02-28T11:50:07.825Z,29.17
2019-02-28T11:51:17.621Z,28.99
2019-02-28T11:52:27.362Z,28.68
2019-02-28T11:53:39.328Z,28.79
2019-02-28T11:54:45.873Z,28.67
2019-02-28T11:55:54.482Z,28.57
2019-02-28T11:57:04.425Z,28.73
2019-02-28T11:58:16.284Z,28.57
2019-02-28T11:59:24.106Z,28.44
2019-02-28T12:00:38.503Z,28.58
2019-02-28T12:01:48.344Z,28.58
2019-02-28T12:03:00.776Z,28.37
2019-02-28T12:04:06.994Z,28.32
2019-02-28T12:05:15.692Z,27.87
2019-02-28T12:06:25.766Z,27.97
2019-02-28T12:07:34.890Z,28.15
2019-02-28T12:08:45.015Z,28.30
2019-02-28T12:09:54.768Z,28.12
2019-02-28T12:11:04.065Z,27.92
2019-02-28T12:12:12.397Z,27.96
2019-02-28T12:13:20.750Z,28.10
2019-02-28T12:14:30.015Z,28.03
2019-02-28T12:15:40.739Z,27.73
2019-02-28T12:16:52.711Z,27.76
2019-02-28T12:18:03.626Z,27.89
2019-02-28T12:19:08.507Z,27.92
2019-02-28T12:20:16.987Z,27.96
2019-02-28T12:21:25.147Z,28.00
2019-02-28T12:22:33.232Z,27.77
2019-02-28T12:23:41.305Z,27.88
2019-02-28T12:24:49.695Z,27.88
2019-02-28T12:25:57.997Z,27.38
2019-02-28T12:27:06.332Z,27.50
2019-02-28T12:28:14.634Z,27.39
2019-02-28T12:29:22.880Z,27.28
2019-02-28T12:30:35.242Z,27.28
2019-02-28T12:31:43.351Z,27.07
2019-02-28T12:32:52.589Z,26.81
2019-02-28T12:34:00.861Z,26.92
2019-02-28T12:35:09.689Z,26.77
2019-02-28T12:36:17.617Z,26.82
2019-02-28T12:37:25.609Z,26.82
2019-02-28T12:38:33.930Z,26.94
2019-02-28T12:39:41.896Z,26.61
2019-02-28T12:40:49.950Z,26.55
2019-02-28T12:41:59.577Z,26.73
2019-02-28T12:43:10.496Z,26.87
2019-02-28T12:44:18.440Z,26.97
2019-02-28T12:45:33.091Z,26.90
2019-02-28T12:46:41.215Z,26.79
2019-02-28T12:47:49.435Z,26.88
2019-02-28T12:48:57.528Z,26.98
2019-02-28T12:50:09.806Z,26.57
2019-02-28T12:51:18.318Z,26.54
2019-02-28T12:52:27.034Z,26.72
2019-02-28T12:53:35.710Z,26.91
2019-02-28T12:54:43.753Z,27.00
2019-02-28T12:55:52.021Z,27.12
2019-02-28T12:57:00.256Z,27.18
2019-02-28T12:58:08.468Z,27.13
2019-02-28T12:59:16.756Z,27.18
2019-02-28T13:00:34.290Z,27.13
2019-02-28T13:01:42.241Z,27.09
2019-02-28T13:02:50.297Z,26.75
2019-02-28T13:04:00.653Z,26.34
2019-02-28T13:05:14.810Z,26.22
2019-02-28T13:06:23.849Z,26.23
2019-02-28T13:07:33.860Z,26.33
2019-02-28T13:08:42.383Z,26.47
2019-02-28T13:09:51.547Z,26.39
2019-02-28T13:11:04.531Z,26.46
2019-02-28T13:12:12.125Z,26.57
2019-02-28T13:13:23.239Z,26.61
2019-02-28T13:14:31.249Z,26.15
2019-02-28T13:15:39.394Z,26.16
2019-02-28T13:16:47.387Z,26.09
2019-02-28T13:17:55.911Z,26.19
2019-02-28T13:19:04.719Z,26.11
2019-02-28T13:20:18.534Z,26.17
2019-02-28T13:21:26.651Z,26.23
2019-02-28T13:22:36.400Z,26.16
2019-02-28T13:23:44.799Z,26.14
2019-02-28T13:24:53.109Z,26.20
2019-02-28T13:26:01.437Z,26.20
2019-02-28T13:27:10.874Z,26.12
2019-02-28T13:28:22.418Z,25.96
2019-02-28T13:29:32.509Z,25.96
2019-02-28T13:30:40.155Z,25.75
2019-02-28T13:31:48.865Z,25.50
2019-02-28T13:32:57.567Z,25.66
2019-02-28T13:34:05.987Z,25.67
2019-02-28T13:35:21.389Z,25.78
2019-02-28T13:36:29.843Z,25.67
2019-02-28T13:37:40.760Z,25.46
2019-02-28T13:38:54.864Z,25.60
2019-02-28T13:40:00.324Z,25.56
2019-02-28T13:41:08.860Z,25.81
2019-02-28T13:42:16.987Z,25.94
2019-02-28T13:43:32.836Z,25.83
2019-02-28T13:44:41.548Z,25.80
2019-02-28T13:45:50.774Z,25.79
2019-02-28T13:47:00.582Z,25.82
2019-02-28T13:48:09.890Z,25.80
2019-02-28T13:49:18.594Z,25.82
2019-02-28T13:50:34.529Z,25.66
2019-02-28T13:51:43.397Z,25.50
2019-02-28T13:52:52.585Z,25.63
2019-02-28T13:54:03.034Z,25.44
2019-02-28T13:55:18.942Z,25.32
2019-02-28T13:56:24.774Z,25.37
2019-02-28T13:57:33.272Z,25.40
2019-02-28T13:58:41.636Z,25.54
2019-02-28T13:59:49.968Z,25.57
2019-02-28T14:00:58.831Z,25.55
2019-02-28T14:02:07.574Z,25.65
2019-02-28T14:03:17.107Z,25.61
2019-02-28T14:04:35.451Z,25.63
2019-02-28T14:05:43.694Z,25.45
2019-02-28T14:06:55.797Z,25.51
2019-02-28T14:08:09.807Z,25.52
2019-02-28T14:09:18.868Z,25.47
2019-02-28T14:10:29.530Z,25.49
2019-02-28T14:11:37.127Z,25.55
2019-02-28T14:12:45.544Z,25.55
2019-02-28T14:13:53.660Z,25.55
2019-02-28T14:15:01.837Z,25.54
2019-02-28T14:16:10.702Z,25.48
2019-02-28T14:17:19.021Z,25.53
2019-02-28T14:18:31.252Z,25.65
2019-02-28T14:19:40.000Z,25.68
2019-02-28T14:20:49.497Z,25.78
2019-02-28T14:21:57.803Z,25.65
2019-02-28T14:23:08.006Z,25.52
2019-02-28T14:24:16.660Z,25.50
2019-02-28T14:25:25.504Z,25.43
2019-02-28T14:26:42.401Z,25.59
2019-02-28T14:27:43.920Z,25.62
2019-02-28T14:28:52.110Z,25.70
2019-02-28T14:30:00.235Z,25.74
2019-02-28T14:31:08.350Z,25.70
2019-02-28T14:32:16.622Z,25.78
2019-02-28T14:33:25.110Z,25.88
2019-02-28T14:34:33.008Z,25.94
2019-02-28T14:35:41.037Z,25.98
2019-02-28T14:36:49.667Z,26.07
2019-02-28T14:37:58.565Z,26.06
2019-02-28T14:39:11.223Z,25.84
2019-02-28T14:40:20.059Z,25.85
2019-02-28T14:41:31.769Z,25.97
2019-02-28T14:42:40.818Z,26.01
2019-02-28T14:43:48.220Z,26.02
2019-02-28T14:44:56.424Z,26.04
2019-02-28T14:46:05.036Z,26.14
2019-02-28T14:47:13.054Z,26.19
2019-02-28T14:48:21.284Z,26.21
2019-02-28T14:49:29.851Z,26.25